createdAt,value
2018-06-04T05:05:48.928Z,21.39
2018-06-04T05:10:52.206Z,21.47
2018-06-04T05:15:56.262Z,21.48
2018-06-04T05:20:59.539Z,21.56
2018-06-04T05:26:02.825Z,21.64
2018-06-04T05:31:06.111Z,21.71
2018-06-04T05:36:09.404Z,21.72
2018-06-04T05:41:13.440Z,21.79
2018-06-04T05:46:16.722Z,21.84
2018-06-04T05:51:20.007Z,21.96
2018-06-04T05:56:23.303Z,21.97
2018-06-04T06:01:26.589Z,22.04
2018-06-04T06:06:29.879Z,22.21
2018-06-04T06:11:33.923Z,22.33
2018-06-04T06:16:37.221Z,22.39
2018-06-04T06:21:41.266Z,22.52
2018-06-04T06:26:44.556Z,22.60
2018-06-04T06:31:48.612Z,22.67
2018-06-04T06:36:52.115Z,22.80
2018-06-04T06:41:56.557Z,22.89
2018-06-04T06:46:59.843Z,22.89
2018-06-04T06:52:03.900Z,23.04
2018-06-04T06:57:07.575Z,23.12
2018-06-04T07:02:10.864Z,23.13
2018-06-04T07:07:14.340Z,23.33
2018-06-04T07:12:18.670Z,23.39
2018-06-04T07:17:21.975Z,23.55
2018-06-04T07:22:26.324Z,23.68
2018-06-04T07:27:30.383Z,23.69
2018-06-04T07:32:33.677Z,23.79
2018-06-04T07:37:36.999Z,23.98
2018-06-04T07:42:40.327Z,24.05
2018-06-04T07:47:43.635Z,24.20
2018-06-04T07:52:46.931Z,24.22
2018-06-04T07:57:50.541Z,24.28
2018-06-04T08:02:54.045Z,24.33
2018-06-04T08:07:58.143Z,24.28
2018-06-04T08:13:01.432Z,24.37
2018-06-04T08:18:06.710Z,24.45
2018-06-04T08:23:10.023Z,24.49
2018-06-04T08:28:13.320Z,24.59
2018-06-04T08:33:16.619Z,24.74
2018-06-04T08:38:19.906Z,24.81
2018-06-04T08:43:23.187Z,24.75
2018-06-04T08:48:26.472Z,24.89
2018-06-04T08:53:29.751Z,24.96
2018-06-04T08:58:33.061Z,25.10
2018-06-04T09:03:36.360Z,25.13
2018-06-04T09:08:39.672Z,25.16
2018-06-04T09:13:43.181Z,25.23
2018-06-04T09:18:47.235Z,25.34
2018-06-04T09:23:50.928Z,25.47
2018-06-04T09:28:55.158Z,25.60
2018-06-04T09:33:58.579Z,25.69
2018-06-04T09:39:02.636Z,25.73
2018-06-04T09:44:06.644Z,25.86
2018-06-04T09:49:09.934Z,25.97
2018-06-04T09:54:13.990Z,25.98
2018-06-04T09:59:17.275Z,26.10
2018-06-04T10:04:20.559Z,26.10
2018-06-04T10:09:23.835Z,26.25
2018-06-04T10:14:27.128Z,26.43
2018-06-04T10:19:30.412Z,26.38
2018-06-04T10:24:33.700Z,26.44
2018-06-04T10:29:36.975Z,26.56
2018-06-04T10:34:40.260Z,26.67
2018-06-04T10:39:44.330Z,26.71
2018-06-04T10:44:47.591Z,26.76
2018-06-04T10:50:08.468Z,26.89
2018-06-04T10:55:11.745Z,26.93
2018-06-04T11:00:33.942Z,26.95
2018-06-04T11:05:37.223Z,27.06
2018-06-04T11:10:48.718Z,27.05
2018-06-04T11:15:52.035Z,27.19
2018-06-04T11:20:55.316Z,27.14
2018-06-04T11:25:58.622Z,27.21
2018-06-04T11:31:01.895Z,27.29
2018-06-04T11:36:05.193Z,27.41
2018-06-04T11:41:08.694Z,27.39
2018-06-04T11:46:12.019Z,27.58
2018-06-04T11:51:15.349Z,27.98
2018-06-04T11:56:18.659Z,28.02
2018-06-04T12:01:22.664Z,28.44
2018-06-04T12:06:25.950Z,28.63
2018-06-04T12:11:30.029Z,28.94
2018-06-04T12:16:33.295Z,29.24
2018-06-04T12:21:37.597Z,29.54
2018-06-04T12:26:40.924Z,29.62
2018-06-04T12:31:44.212Z,29.52
2018-06-04T12:36:47.509Z,29.43
2018-06-04T12:41:50.835Z,29.60
2018-06-04T12:46:54.135Z,29.93
2018-06-04T12:51:57.416Z,30.00
2018-06-04T12:57:14.881Z,30.20
2018-06-04T13:02:18.171Z,30.42
2018-06-04T13:07:22.240Z,30.58
2018-06-04T13:12:25.514Z,30.59
2018-06-04T13:17:28.799Z,30.70
2018-06-04T13:22:32.092Z,31.02
2018-06-04T13:27:35.395Z,31.23
2018-06-04T13:32:38.675Z,31.68
2018-06-04T13:37:41.967Z,31.44
2018-06-04T13:42:45.263Z,31.24
2018-06-04T13:47:49.312Z,31.97
2018-06-04T13:52:52.603Z,31.91
2018-06-04T13:57:56.683Z,31.76
2018-06-04T14:02:59.967Z,32.31
2018-06-04T14:08:08.599Z,32.99
2018-06-04T14:13:11.896Z,32.49
2018-06-04T14:18:15.939Z,32.99
2018-06-04T14:23:19.235Z,33.34
2018-06-04T14:28:22.523Z,33.64
2018-06-04T14:33:25.802Z,33.90
2018-06-04T14:38:42.323Z,34.14
2018-06-04T14:43:45.607Z,34.42
2018-06-04T14:49:09.241Z,34.65
2018-06-04T14:54:12.523Z,34.68
2018-06-04T14:59:15.812Z,35.42
2018-06-04T15:04:19.885Z,35.77
2018-06-04T15:09:23.165Z,35.71
2018-06-04T15:14:26.451Z,35.68
2018-06-04T15:19:30.505Z,35.77
2018-06-04T15:24:33.811Z,36.10
2018-06-04T15:29:47.171Z,35.90
2018-06-04T15:34:50.466Z,35.46
2018-06-04T15:40:05.750Z,35.68
2018-06-04T15:45:09.794Z,35.99
2018-06-04T15:50:16.518Z,36.20
2018-06-04T15:55:19.779Z,36.07
2018-06-04T16:00:31.478Z,35.91
2018-06-04T16:05:35.532Z,35.95
2018-06-04T16:10:43.152Z,35.72
2018-06-04T16:15:46.446Z,36.00
2018-06-04T16:20:54.350Z,35.64
2018-06-04T16:25:57.642Z,36.38
2018-06-04T16:31:00.925Z,36.79
2018-06-04T16:36:04.209Z,37.02
2018-06-04T16:41:08.284Z,36.99
2018-06-04T16:46:11.568Z,36.79
2018-06-04T16:51:14.863Z,36.47
2018-06-04T16:56:18.159Z,36.33
2018-06-04T17:01:22.202Z,36.42
2018-06-04T17:06:25.715Z,36.53
2018-06-04T17:11:29.795Z,36.37
2018-06-04T17:16:33.096Z,35.54
2018-06-04T17:21:36.406Z,36.01
2018-06-04T17:26:39.711Z,35.90
2018-06-04T17:31:43.015Z,35.72
2018-06-04T17:36:46.294Z,35.50
2018-06-04T17:41:50.355Z,35.43
2018-06-04T17:46:53.635Z,35.09
2018-06-04T17:51:57.683Z,35.06
2018-06-04T17:57:00.977Z,35.05
2018-06-04T18:02:05.026Z,35.05
2018-06-04T18:07:08.303Z,34.91
2018-06-04T18:12:11.602Z,34.62
2018-06-04T18:17:14.887Z,34.40
2018-06-04T18:22:18.163Z,34.02
2018-06-04T18:27:21.489Z,33.65
2018-06-04T18:32:24.772Z,33.12
2018-06-04T18:37:28.033Z,32.79
2018-06-04T18:42:31.324Z,32.52
2018-06-04T18:47:34.616Z,32.44
2018-06-04T18:52:38.661Z,32.04
2018-06-04T18:57:41.945Z,31.78
2018-06-04T19:02:45.995Z,31.52
2018-06-04T19:07:49.291Z,30.99
2018-06-04T19:12:52.571Z,30.67
2018-06-04T19:17:55.871Z,30.44
2018-06-04T19:22:59.156Z,30.28
2018-06-04T19:28:02.453Z,30.16
2018-06-04T19:33:05.772Z,29.89
2018-06-04T19:38:09.026Z,29.82
2018-06-04T19:43:12.312Z,29.73
2018-06-04T19:48:15.603Z,29.62
2018-06-04T19:53:18.903Z,29.49
2018-06-04T19:58:23.307Z,29.35
2018-06-04T20:03:26.581Z,29.25
2018-06-04T20:08:29.872Z,29.27
2018-06-04T20:13:33.152Z,29.15
2018-06-04T20:18:37.201Z,29.08
2018-06-04T20:23:41.259Z,28.98
2018-06-04T20:28:44.548Z,28.96
2018-06-04T20:33:47.866Z,28.83
2018-06-04T20:38:51.880Z,28.68
2018-06-04T20:43:55.934Z,28.57
2018-06-04T20:48:59.220Z,28.20
2018-06-04T20:54:03.226Z,27.65
2018-06-04T20:59:09.974Z,27.43
2018-06-04T21:04:13.264Z,27.32
2018-06-04T21:09:27.299Z,27.21
2018-06-04T21:14:31.374Z,27.12
2018-06-04T21:19:34.659Z,27.19
2018-06-04T21:24:37.953Z,27.19
2018-06-04T21:29:42.000Z,27.08
2018-06-04T21:34:45.293Z,27.03
2018-06-04T21:39:48.592Z,26.69
2018-06-04T21:44:51.875Z,26.46
2018-06-04T21:49:55.175Z,26.26
2018-06-04T21:54:58.458Z,26.09
2018-06-04T22:00:01.737Z,26.14
2018-06-04T22:05:05.022Z,26.35
2018-06-04T22:10:08.336Z,26.44
2018-06-04T22:15:12.012Z,26.49
2018-06-04T22:20:16.096Z,26.50
2018-06-04T22:25:19.395Z,26.51
